Time;durP1;ratioP1;P1;durP2;ratioP2;P2;SDS_P1;SDS_P2;PMS_P1;PMS_P2;Temp;Humidity;BMP_temperature;BMP_pressure;BME280_temperature;BME280_humidity;BME280_pressure;Samples;Min_cycle;Max_cycle;Signal;HPM_P1;HPM_P2
2023/01/11 00:00:29;;;;;;;0.90;0.80;;;8.20;99.90;;;8.14;100.00;100572.72;5108177;29;20046;-76
2023/01/11 00:03:04;;;;;;;1.27;0.63;;;8.30;99.90;;;8.18;100.00;100579.84;5102309;29;20051;-75
2023/01/11 00:05:40;;;;;;;1.88;0.60;;;8.30;99.90;;;8.18;100.00;100573.75;5088390;29;20047;-76
2023/01/11 00:08:13;;;;;;;2.63;0.68;;;8.30;99.90;;;8.20;100.00;100575.56;5102923;29;20046;-75
2023/01/11 00:10:46;;;;;;;1.10;0.43;;;8.30;99.90;;;8.17;100.00;100583.25;5085892;29;20052;-75
2023/01/11 00:13:18;;;;;;;0.85;0.57;;;8.30;99.90;;;8.18;100.00;100572.03;5103076;29;20126;-76
2023/01/11 00:15:51;;;;;;;2.10;0.80;;;8.30;99.90;;;8.18;100.00;100573.75;5095767;29;20049;-77
2023/01/11 00:18:23;;;;;;;0.50;0.50;;;8.30;99.90;;;8.17;100.00;100572.88;5112487;29;20126;-75
2023/01/11 00:20:55;;;;;;;2.38;0.77;;;8.30;99.90;;;8.23;100.00;100569.63;5111412;29;20043;-76
2023/01/11 00:23:28;;;;;;;1.17;0.75;;;8.30;99.90;;;8.22;100.00;100566.16;5113828;29;20054;-75
2023/01/11 00:26:04;;;;;;;3.13;0.70;;;8.30;99.90;;;8.21;100.00;100558.28;5102534;29;20047;-75
2023/01/11 00:28:36;;;;;;;1.55;0.65;;;8.40;99.90;;;8.22;100.00;100544.50;5102103;29;20054;-76
2023/01/11 00:31:09;;;;;;;0.50;0.50;;;8.40;99.90;;;8.25;100.00;100540.31;5088735;29;20056;-76
2023/01/11 00:33:41;;;;;;;1.90;0.63;;;8.40;99.90;;;8.31;100.00;100535.34;5115239;29;20043;-76
2023/01/11 00:36:13;;;;;;;1.70;0.70;;;8.40;99.90;;;8.32;100.00;100537.13;5123068;29;20051;-76
2023/01/11 00:38:50;;;;;;;0.52;0.52;;;8.40;99.90;;;8.32;100.00;100531.94;5106564;29;20047;-75
2023/01/11 00:50:03;;;;;;;1.85;0.57;;;8.50;99.90;;;8.39;100.00;100508.00;5073224;29;20093;-76
2023/01/11 00:52:35;;;;;;;0.75;0.45;;;8.50;99.90;;;8.41;100.00;100514.16;5122383;29;20118;-75
2023/01/11 00:55:09;;;;;;;0.57;0.57;;;8.50;99.90;;;8.45;100.00;100511.66;5105659;29;20051;-76
2023/01/11 00:57:42;;;;;;;0.82;0.50;;;8.60;99.90;;;8.43;100.00;100502.09;5122894;29;20044;-76
2023/01/11 01:00:15;;;;;;;1.08;0.70;;;8.50;99.90;;;8.41;100.00;100508.97;5118514;29;20054;-76
2023/01/11 01:02:48;;;;;;;2.65;0.50;;;8.50;99.90;;;8.51;100.00;100507.59;5109874;29;20126;-75
2023/01/11 01:05:21;;;;;;;1.45;0.43;;;8.60;99.90;;;8.51;100.00;100517.97;5108077;29;20051;-75
2023/01/11 01:07:53;;;;;;;0.50;0.40;;;8.60;99.90;;;8.54;100.00;100512.00;5126355;29;20047;-75
2023/01/11 01:10:25;;;;;;;0.80;0.50;;;8.60;99.90;;;8.56;100.00;100508.66;5125234;29;20130;-75
2023/01/11 01:15:48;;;;;;;1.58;0.60;;;8.70;99.90;;;8.59;100.00;100507.88;5102239;29;20086;-76
2023/01/11 01:18:21;;;;;;;0.57;0.57;;;8.70;99.90;;;8.57;100.00;100494.84;5115376;28;20446;-76
2023/01/11 01:20:53;;;;;;;0.50;0.50;;;8.70;99.90;;;8.61;100.00;100503.66;5125818;29;20509;-75
2023/01/11 01:23:25;;;;;;;1.00;0.40;;;8.70;99.90;;;8.64;100.00;100501.16;5126333;29;20416;-75
2023/01/11 01:25:57;;;;;;;0.52;0.52;;;8.70;99.90;;;8.66;100.00;100491.69;5125862;29;20058;-76
2023/01/11 01:28:31;;;;;;;1.75;0.60;;;8.70;99.90;;;8.64;100.00;100502.03;5125927;28;20157;-75
2023/01/11 01:31:03;;;;;;;0.50;0.50;;;8.70;99.90;;;8.65;100.00;100495.13;5125780;29;20055;-75
2023/01/11 01:33:36;;;;;;;1.50;0.50;;;8.80;99.90;;;8.63;100.00;100496.78;5125940;29;20050;-75
2023/01/11 01:36:09;;;;;;;3.60;0.60;;;8.80;99.90;;;8.65;100.00;100503.81;5125851;28;20067;-74
2023/01/11 01:38:41;;;;;;;0.68;0.40;;;8.70;99.90;;;8.67;100.00;100507.38;5125790;29;20471;-75
2023/01/11 01:41:14;;;;;;;0.40;0.40;;;8.80;99.90;;;8.68;100.00;100500.44;5125608;29;20058;-75
2023/01/11 01:43:52;;;;;;;0.43;0.43;;;8.80;99.90;;;8.69;100.00;100507.41;5125869;29;20054;-75
2023/01/11 01:46:29;;;;;;;0.80;0.50;;;8.80;99.90;;;8.70;100.00;100506.59;5108737;28;20050;-75
2023/01/11 01:49:06;;;;;;;0.82;0.55;;;8.80;99.90;;;8.75;100.00;100507.66;5125686;29;20039;-75
2023/01/11 01:51:42;;;;;;;0.85;0.60;;;8.90;99.90;;;8.81;100.00;100505.28;5126046;29;20043;-75
2023/01/11 01:54:20;;;;;;;0.73;0.52;;;8.90;99.90;;;8.85;100.00;100503.66;5108462;29;20070;-75
2023/01/11 01:56:57;;;;;;;0.60;0.60;;;8.90;99.90;;;8.83;100.00;100493.22;5108506;29;20074;-75
2023/01/11 01:59:33;;;;;;;0.60;0.60;;;8.90;99.90;;;8.91;100.00;100489.16;5125304;29;20050;-75
2023/01/11 02:02:05;;;;;;;0.57;0.52;;;9.00;99.90;;;8.93;100.00;100489.22;5124718;29;20065;-76
2023/01/11 02:04:40;;;;;;;1.00;0.50;;;9.00;99.90;;;8.91;100.00;100480.50;5125663;29;20053;-75
2023/01/11 02:07:16;;;;;;;0.82;0.43;;;9.00;99.90;;;8.97;100.00;100479.00;5125868;28;20047;-74
2023/01/11 02:09:58;;;;;;;1.05;0.60;;;9.00;99.90;;;8.96;100.00;100473.75;5108523;29;20547;-74
2023/01/11 02:12:39;;;;;;;2.10;0.50;;;9.00;99.90;;;8.94;100.00;100463.31;5125399;29;20065;-73
2023/01/11 02:15:15;;;;;;;0.82;0.50;;;9.00;99.90;;;9.00;100.00;100466.94;5107727;29;20142;-74
2023/01/11 02:17:47;;;;;;;1.27;0.60;;;9.00;99.90;;;9.01;100.00;100463.53;5125163;28;20055;-73
2023/01/11 02:20:55;;;;;;;0.80;0.60;;;9.10;99.90;;;9.00;100.00;100461.72;5125596;29;20047;-73
2023/01/11 02:24:01;;;;;;;;;;;9.10;99.90;;;8.98;100.00;100462.56;5120766;29;20412;-73
2023/01/11 02:27:26;;;;;;;0.50;0.40;;;9.10;99.90;;;9.02;100.00;100458.38;5125561;28;20024;-73
2023/01/11 02:30:14;;;;;;;2.58;1.10;;;9.10;99.90;;;9.05;100.00;100449.78;5111015;29;20114;-74
2023/01/11 02:33:03;;;;;;;1.20;0.50;;;9.10;99.90;;;9.04;100.00;100443.72;5125464;29;20047;-74
2023/01/11 02:35:43;;;;;;;1.63;0.32;;;9.10;99.90;;;9.03;100.00;100439.34;5107779;29;20564;-74
2023/01/11 02:38:28;;;;;;;0.50;0.50;;;9.20;99.90;;;9.07;100.00;100432.53;5125192;28;20661;-73
2023/01/11 02:41:08;;;;;;;0.70;0.40;;;9.20;99.90;;;9.12;100.00;100431.84;5124913;29;20131;-73
2023/01/11 02:46:49;;;;;;;0.50;0.43;;;9.20;99.90;;;9.13;100.00;100432.75;5070142;29;20182;-73
2023/01/11 02:49:30;;;;;;;0.52;0.43;;;9.20;99.90;;;9.14;100.00;100424.13;5124745;29;20044;-73
2023/01/11 02:52:10;;;;;;;0.47;0.43;;;9.20;99.90;;;9.16;100.00;100417.25;5124770;29;20043;-74
2023/01/11 02:54:45;;;;;;;0.60;0.60;;;9.20;99.90;;;9.20;100.00;100417.41;5124762;29;20086;-72
2023/01/11 02:57:17;;;;;;;0.32;0.32;;;9.30;99.90;;;9.28;100.00;100422.88;5125162;28;20043;-73
2023/01/11 02:59:50;;;;;;;0.45;0.45;;;9.30;99.90;;;9.32;100.00;100419.53;5107874;29;20043;-73
2023/01/11 03:02:24;;;;;;;0.30;0.30;;;9.30;99.90;;;9.31;100.00;100417.75;5107299;29;20409;-73
2023/01/11 03:04:57;;;;;;;0.73;0.52;;;9.30;99.90;;;9.33;100.00;100412.63;5124704;29;20047;-73
2023/01/11 03:07:50;;;;;;;0.75;0.52;;;9.40;99.90;;;9.35;100.00;100397.97;5123083;28;20051;-72
2023/01/11 03:10:39;;;;;;;0.80;0.70;;;9.40;99.90;;;9.39;100.00;100394.59;5124587;29;20043;-73
2023/01/11 03:13:23;;;;;;;0.45;0.40;;;9.40;99.90;;;9.37;100.00;100385.88;5124429;29;20051;-74
2023/01/11 03:16:23;;;;;;;0.45;0.45;;;9.40;99.90;;;9.39;100.00;100379.91;5107323;29;20397;-73
2023/01/11 03:19:16;;;;;;;0.35;0.32;;;9.40;99.90;;;9.42;100.00;100385.19;5124322;29;20102;-73
2023/01/11 03:21:59;;;;;;;0.85;0.40;;;9.50;99.90;;;9.40;100.00;100386.88;5124110;29;20213;-74
2023/01/11 03:24:40;;;;;;;0.32;0.32;;;9.50;99.90;;;9.45;100.00;100374.91;5124094;29;20053;-73
2023/01/11 03:27:22;;;;;;;0.70;0.70;;;9.50;99.90;;;9.49;100.00;100373.28;5123886;28;20620;-74
2023/01/11 03:30:04;;;;;;;0.95;0.40;;;9.50;99.90;;;9.49;100.00;100366.34;5124262;29;20492;-74
2023/01/11 03:32:45;;;;;;;0.47;0.45;;;9.50;99.90;;;9.52;100.00;100370.78;5106288;29;20057;-74
2023/01/11 03:35:28;;;;;;;0.32;0.32;;;9.60;99.90;;;9.51;100.00;100362.06;5123864;29;20138;-75
2023/01/11 03:38:05;;;;;;;0.50;0.50;;;9.60;99.90;;;9.55;100.00;100365.66;5106981;29;20062;-73
2023/01/11 03:40:41;;;;;;;0.40;0.30;;;9.60;99.90;;;9.55;100.00;100364.78;5123737;29;20062;-73
2023/01/11 03:43:18;;;;;;;0.47;0.47;;;9.60;99.90;;;9.58;100.00;100359.66;5122979;29;20055;-74
2023/01/11 03:45:55;;;;;;;0.73;0.35;;;9.60;99.90;;;9.62;100.00;100357.22;5123666;29;20400;-73
2023/01/11 03:48:41;;;;;;;0.28;0.28;;;9.60;99.90;;;9.63;100.00;100358.09;5124304;28;20392;-73
2023/01/11 03:51:19;;;;;;;0.43;0.40;;;9.70;99.90;;;9.64;100.00;100360.75;5122496;29;20137;-73
2023/01/11 03:53:53;;;;;;;0.95;0.50;;;9.70;99.90;;;9.65;100.00;100359.03;5106257;29;20150;-73
2023/01/11 03:56:32;;;;;;;0.50;0.40;;;9.70;99.90;;;9.63;100.00;100351.16;5106406;28;20051;-73
2023/01/11 03:59:04;;;;;;;0.75;0.50;;;9.70;99.90;;;9.65;100.00;100353.81;5106359;29;20523;-73
2023/01/11 04:01:38;;;;;;;0.55;0.50;;;9.70;99.90;;;9.67;100.00;100349.56;5123694;29;20047;-74
2023/01/11 04:04:11;;;;;;;2.38;2.00;;;9.80;99.90;;;9.69;100.00;100355.69;5123690;29;20050;-73
2023/01/11 04:06:45;;;;;;;3.38;1.50;;;9.70;99.90;;;9.71;100.00;100346.19;5105973;29;20538;-74
2023/01/11 04:09:17;;;;;;;0.52;0.52;;;9.80;99.90;;;9.77;100.00;100349.00;5106441;29;20061;-73
2023/01/11 04:11:50;;;;;;;0.90;0.90;;;9.80;99.90;;;9.81;100.00;100343.06;5123871;29;20035;-72
2023/01/11 04:14:23;;;;;;;0.85;0.75;;;9.80;99.90;;;9.82;100.00;100344.81;5123514;29;20229;-73
2023/01/11 04:16:56;;;;;;;0.63;0.63;;;9.80;99.90;;;9.84;100.00;100345.75;5090941;29;20051;-73
2023/01/11 04:19:29;;;;;;;0.50;0.50;;;9.90;99.90;;;9.88;100.00;100341.53;5123497;29;20078;-74
2023/01/11 04:22:02;;;;;;;3.72;2.40;;;9.90;99.90;;;9.87;100.00;100348.44;5123533;29;20044;-73
2023/01/11 04:24:34;;;;;;;1.10;1.00;;;9.90;99.90;;;9.93;100.00;100339.94;5106052;29;20069;-74
2023/01/11 04:27:07;;;;;;;1.70;0.85;;;10.00;99.90;;;9.95;100.00;100340.88;5123726;28;20500;-73
2023/01/11 04:29:39;;;;;;;1.30;0.80;;;10.00;99.90;;;9.98;100.00;100341.84;5123452;29;20039;-74
2023/01/11 04:32:11;;;;;;;1.70;0.88;;;10.00;99.90;;;9.96;100.00;100346.13;5106261;29;20527;-74
2023/01/11 04:34:44;;;;;;;2.42;1.65;;;10.00;99.90;;;9.96;100.00;100338.31;5199033;23;20047;-71
2023/01/11 04:37:17;;;;;;;6.70;3.08;;;10.00;99.90;;;9.98;100.00;100335.78;5136047;28;20053;-71
2023/01/11 04:39:49;;;;;;;12.38;6.05;;;10.00;99.90;;;9.99;100.00;100341.03;5148257;28;20072;-71
2023/01/11 04:42:20;;;;;;;5.88;3.05;;;10.00;99.90;;;9.98;100.00;100339.25;5166126;28;20088;-71
2023/01/11 04:44:53;;;;;;;3.42;1.77;;;10.00;99.90;;;10.00;100.00;100342.78;5163867;28;20046;-71
2023/01/11 04:47:25;;;;;;;2.45;1.08;;;10.00;99.90;;;10.01;100.00;100336.72;5147787;28;20050;-70
2023/01/11 04:49:57;;;;;;;1.88;0.90;;;10.00;99.90;;;9.99;100.00;100338.41;5147453;28;20058;-70
2023/01/11 04:52:31;;;;;;;0.82;0.70;;;10.00;99.90;;;9.96;100.00;100333.09;5147511;28;20053;-70
2023/01/11 04:55:04;;;;;;;3.05;1.92;;;10.00;99.90;;;9.95;100.00;100335.66;5147412;28;20162;-69
2023/01/11 04:57:36;;;;;;;1.23;1.10;;;10.00;99.90;;;9.93;100.00;100337.34;5146814;28;20053;-72
2023/01/11 05:00:11;;;;;;;1.33;1.20;;;10.00;99.90;;;9.93;100.00;100338.22;5147262;28;20047;-70
2023/01/11 05:02:43;;;;;;;1.83;1.52;;;10.00;99.90;;;9.92;100.00;100333.88;5146169;28;20050;-70
2023/01/11 05:05:15;;;;;;;2.88;1.67;;;10.00;99.90;;;9.94;100.00;100329.56;5147425;28;20400;-71
2023/01/11 05:07:50;;;;;;;1.33;1.10;;;10.00;99.90;;;9.95;100.00;100320.03;5147494;28;20492;-71
2023/01/11 05:10:22;;;;;;;0.80;0.80;;;10.00;99.90;;;9.95;100.00;100326.13;5147348;28;20077;-70
2023/01/11 05:12:54;;;;;;;0.43;0.43;;;10.00;99.90;;;9.95;100.00;100331.34;5147238;28;20526;-70
2023/01/11 05:15:26;;;;;;;0.40;0.40;;;10.00;99.90;;;9.97;100.00;100318.34;5145505;28;20063;-71
2023/01/11 05:17:58;;;;;;;0.98;0.70;;;10.00;99.90;;;9.96;100.00;100320.06;5146670;28;20344;-71
2023/01/11 05:20:30;;;;;;;0.50;0.50;;;10.00;99.90;;;9.96;100.00;100312.25;5146926;28;20557;-72
2023/01/11 05:23:03;;;;;;;0.50;0.50;;;10.00;99.90;;;9.98;100.00;100320.16;5145579;28;20145;-72
2023/01/11 05:25:35;;;;;;;0.63;0.63;;;10.00;99.90;;;9.98;100.00;100318.44;5147122;28;20484;-71
2023/01/11 05:28:08;;;;;;;1.58;0.82;;;10.00;99.90;;;9.98;100.00;100315.81;5147224;28;20117;-71
2023/01/11 05:30:40;;;;;;;1.00;0.63;;;10.00;99.90;;;9.98;100.00;100309.72;5145900;28;20073;-71
2023/01/11 05:33:12;;;;;;;0.57;0.57;;;10.00;99.90;;;9.99;100.00;100316.69;5162004;28;20041;-72
2023/01/11 05:35:44;;;;;;;0.88;0.55;;;10.00;99.90;;;10.00;100.00;100318.47;5146965;28;20051;-71
2023/01/11 05:38:17;;;;;;;1.83;1.08;;;10.00;99.90;;;10.02;100.00;100316.78;5146894;28;20039;-70
2023/01/11 05:40:55;;;;;;;3.67;3.03;;;10.00;99.90;;;10.04;100.00;100318.59;5146723;28;20047;-70
2023/01/11 05:43:29;;;;;;;1.90;1.55;;;10.00;99.90;;;10.06;100.00;100309.09;5147009;28;20047;-72
2023/01/11 05:46:00;;;;;;;1.63;1.45;;;10.10;99.90;;;10.06;100.00;100306.50;5145412;28;20046;-72
2023/01/11 05:48:32;;;;;;;1.20;0.93;;;10.10;99.90;;;10.11;100.00;100300.56;5145301;28;20046;-71
2023/01/11 05:51:05;;;;;;;2.30;1.98;;;10.10;99.90;;;10.09;100.00;100300.50;5145208;28;20076;-72
2023/01/11 05:53:38;;;;;;;2.05;1.85;;;10.10;99.90;;;10.13;100.00;100298.88;5145490;28;20046;-71
2023/01/11 05:56:10;;;;;;;1.00;1.00;;;10.10;99.90;;;10.13;100.00;100293.66;5146703;28;20047;-72
2023/01/11 05:58:43;;;;;;;1.83;1.73;;;10.10;99.90;;;10.13;100.00;100297.16;5146407;28;20042;-71
2023/01/11 06:01:16;;;;;;;1.40;1.10;;;10.10;99.90;;;10.14;100.00;100295.41;5146379;28;20126;-72
2023/01/11 06:03:48;;;;;;;0.90;0.73;;;10.20;99.90;;;10.17;100.00;100295.50;5146389;28;20453;-72
2023/01/11 06:06:21;;;;;;;1.42;0.90;;;10.20;99.90;;;10.17;100.00;100290.28;5146289;28;20062;-72
2023/01/11 06:08:55;;;;;;;0.75;0.70;;;10.20;99.90;;;10.19;100.00;100293.84;5144513;28;20055;-71
2023/01/11 06:11:27;;;;;;;2.78;1.10;;;10.20;99.90;;;10.20;100.00;100287.78;5145324;28;20050;-71
2023/01/11 06:13:59;;;;;;;0.80;0.80;;;10.20;99.90;;;10.19;100.00;100288.63;5144361;28;20046;-71
2023/01/11 06:16:31;;;;;;;4.82;1.75;;;10.20;99.90;;;10.20;100.00;100283.44;5145836;28;20472;-70
2023/01/11 06:19:03;;;;;;;1.67;0.75;;;10.20;99.90;;;10.20;100.00;100279.97;5145910;28;20054;-71
2023/01/11 06:21:36;;;;;;;1.30;0.73;;;10.20;99.90;;;10.22;100.00;100283.50;5161092;28;20051;-70
2023/01/11 06:24:09;;;;;;;1.52;0.55;;;10.20;99.90;;;10.22;100.00;100283.50;5146149;28;20043;-71
2023/01/11 06:26:41;;;;;;;0.98;0.52;;;10.20;99.90;;;10.22;100.00;100276.56;5160655;28;20506;-71
2023/01/11 06:29:14;;;;;;;0.65;0.50;;;10.20;99.90;;;10.23;100.00;100280.94;5144532;28;20049;-71
2023/01/11 06:31:46;;;;;;;1.73;1.35;;;10.20;99.90;;;10.25;100.00;100281.03;5144779;28;20530;-73
2023/01/11 06:34:18;;;;;;;1.20;1.10;;;10.30;99.90;;;10.26;100.00;100280.19;5145490;28;20041;-74
2023/01/11 06:36:50;;;;;;;1.10;0.90;;;10.30;99.90;;;10.27;100.00;100274.13;5145904;28;20053;-72
2023/01/11 06:39:24;;;;;;;1.20;1.10;;;10.30;99.90;;;10.29;100.00;100285.47;5145919;28;20043;-71
2023/01/11 06:41:56;;;;;;;1.70;1.42;;;10.30;99.90;;;10.30;100.00;100288.13;5145748;28;20047;-71
2023/01/11 06:44:28;;;;;;;2.65;1.88;;;10.30;99.90;;;10.32;100.00;100277.75;5145767;28;20043;-71
2023/01/11 06:47:00;;;;;;;2.38;1.40;;;10.30;99.90;;;10.34;100.00;100283.88;5145475;28;20057;-71
2023/01/11 06:49:32;;;;;;;1.15;0.90;;;10.30;99.90;;;10.34;100.00;100294.28;5145515;28;20499;-71
2023/01/11 06:52:04;;;;;;;1.00;0.82;;;10.30;99.90;;;10.35;100.00;100292.56;5144346;28;20053;-71
2023/01/11 06:54:38;;;;;;;1.17;0.90;;;10.40;99.90;;;10.35;100.00;100296.03;5144101;28;20057;-70
2023/01/11 06:57:10;;;;;;;1.10;0.85;;;10.30;99.90;;;10.37;100.00;100294.38;5145434;28;20062;-70
2023/01/11 06:59:42;;;;;;;1.42;1.00;;;10.40;99.90;;;10.39;100.00;100297.91;5143977;28;20053;-72
2023/01/11 07:02:14;;;;;;;1.40;0.82;;;10.40;99.90;;;10.40;100.00;100306.59;5143593;28;20058;-71
2023/01/11 07:04:47;;;;;;;1.25;0.75;;;10.40;99.90;;;10.42;100.00;100304.91;5159608;28;20554;-61
2023/01/11 07:07:19;;;;;;;1.50;0.80;;;10.40;99.90;;;10.43;100.00;100304.97;5144542;28;20574;-60
2023/01/11 07:09:53;;;;;;;1.30;0.75;;;10.40;99.90;;;10.45;100.00;100308.50;5144622;28;20057;-60
2023/01/11 07:12:25;;;;;;;1.13;1.02;;;10.50;99.90;;;10.47;100.00;100312.03;5144568;28;20062;-61
2023/01/11 07:14:57;;;;;;;1.13;0.77;;;10.50;99.90;;;10.49;100.00;100315.53;5144772;28;20046;-60
2023/01/11 07:17:29;;;;;;;1.88;0.80;;;10.50;99.90;;;10.49;100.00;100315.53;5143126;28;20042;-61
2023/01/11 07:20:02;;;;;;;0.93;0.50;;;10.50;99.90;;;10.49;100.00;100320.75;5144585;28;20466;-61
2023/01/11 07:22:35;;;;;;;0.95;0.60;;;10.50;99.90;;;10.48;100.00;100319.00;5144487;28;20500;-63
2023/01/11 07:25:09;;;;;;;0.75;0.43;;;10.50;99.90;;;10.47;100.00;100319.84;5144368;28;20055;-60
2023/01/11 07:27:41;;;;;;;0.82;0.45;;;10.50;99.90;;;10.49;100.00;100320.75;5144266;28;20051;-61
2023/01/11 07:30:14;;;;;;;1.40;0.40;;;10.50;99.90;;;10.54;100.00;100337.41;5144277;28;20042;-61
2023/01/11 07:32:46;;;;;;;1.63;0.47;;;10.50;99.90;;;10.57;100.00;100342.72;5144193;28;20051;-61
2023/01/11 07:35:18;;;;;;;0.47;0.40;;;10.50;99.90;;;10.56;100.00;100342.66;5144615;28;20189;-61
2023/01/11 07:37:50;;;;;;;0.50;0.50;;;10.50;99.90;;;10.56;100.00;100354.00;5144587;28;20539;-62
2023/01/11 07:40:23;;;;;;;1.25;0.38;;;10.50;99.90;;;10.56;100.00;100351.38;5144158;28;20431;-61
2023/01/11 07:43:10;;;;;;;0.43;0.43;;;10.50;99.90;;;10.58;100.00;100362.72;5144096;28;20047;-61
2023/01/11 07:45:45;;;;;;;1.35;0.52;;;10.60;99.90;;;10.60;100.00;100371.47;5144204;28;20061;-62
2023/01/11 07:48:23;;;;;;;0.28;0.25;;;10.60;99.90;;;10.59;100.00;100377.53;5144041;28;20050;-62
2023/01/11 07:50:55;;;;;;;0.32;0.32;;;10.60;99.90;;;10.58;100.00;100378.38;5144022;28;20042;-60
2023/01/11 07:53:28;;;;;;;0.30;0.30;;;10.60;99.90;;;10.57;100.00;100380.94;5144025;28;20121;-61
2023/01/11 07:56:01;;;;;;;0.40;0.35;;;10.60;99.90;;;10.59;100.00;100385.34;5143606;28;20042;-63
2023/01/11 07:58:33;;;;;;;1.02;0.50;;;10.60;99.90;;;10.61;100.00;100382.75;5142808;28;20054;-62
2023/01/11 08:01:06;;;;;;;0.30;0.30;;;10.60;99.90;;;10.60;100.00;100396.66;5142790;28;20527;-61
2023/01/11 08:03:38;;;;;;;0.55;0.38;;;10.60;99.90;;;10.59;100.00;100397.50;5142636;28;20050;-62
2023/01/11 08:06:10;;;;;;;0.88;0.57;;;10.60;99.90;;;10.57;100.00;100405.28;5143405;28;20504;-62
2023/01/11 08:08:42;;;;;;;0.40;0.40;;;10.60;99.90;;;10.58;100.00;100409.63;5143768;28;20058;-60
2023/01/11 08:16:55;;;;;;;1.10;0.28;;;10.60;99.90;;;10.71;100.00;100403.06;5143554;28;20117;-58
2023/01/11 08:19:27;;;;;;;0.63;0.40;;;10.60;99.90;;;10.76;100.00;100413.63;5143694;28;20043;-63
2023/01/11 08:21:59;;;;;;;0.95;0.60;;;10.70;99.90;;;10.84;100.00;100412.09;5143931;28;20103;-63
2023/01/11 08:24:31;;;;;;;0.90;0.73;;;10.80;99.90;;;10.84;100.00;100412.97;5142701;28;20054;-62
2023/01/11 08:27:05;;;;;;;0.30;0.28;;;10.80;99.90;;;10.87;100.00;100423.47;5144166;28;20073;-63
2023/01/11 08:29:38;;;;;;;0.43;0.32;;;10.80;99.90;;;10.86;100.00;100431.25;5144100;28;20054;-63
2023/01/11 08:32:11;;;;;;;0.55;0.40;;;10.90;99.90;;;10.83;100.00;100432.06;5143689;28;20122;-62
2023/01/11 08:34:43;;;;;;;1.77;0.40;;;10.80;99.90;;;10.82;100.00;100432.91;5142068;28;20054;-63
2023/01/11 08:37:15;;;;;;;0.52;0.45;;;10.80;99.90;;;10.79;100.00;100439.75;5142252;28;20043;-62
2023/01/11 08:39:48;;;;;;;0.47;0.40;;;10.80;99.90;;;10.80;100.00;100436.31;5142234;28;20074;-62
2023/01/11 08:42:21;;;;;;;0.90;0.52;;;10.80;99.90;;;10.80;100.00;100421.53;5142283;28;20141;-63
2023/01/11 08:44:54;;;;;;;1.02;0.50;;;10.80;99.90;;;10.81;100.00;100425.03;5143630;28;20055;-63
2023/01/11 08:47:26;;;;;;;1.17;0.52;;;10.80;99.90;;;10.82;100.00;100426.78;5142777;28;20051;-64
2023/01/11 08:49:58;;;;;;;2.22;0.63;;;10.80;99.90;;;10.86;100.00;100429.53;5141908;28;20396;-64
2023/01/11 08:52:30;;;;;;;0.75;0.50;;;10.80;99.90;;;10.87;100.00;100433.91;5142729;28;20418;-63
2023/01/11 08:55:06;;;;;;;0.70;0.52;;;10.80;99.90;;;10.93;100.00;100437.53;5142490;28;20392;-63
2023/01/11 08:57:39;;;;;;;0.63;0.32;;;10.90;99.90;;;10.98;100.00;100449.88;5143033;28;20127;-63
2023/01/11 09:00:13;;;;;;;0.22;0.20;;;10.90;99.90;;;11.04;100.00;100457.84;5142320;28;20415;-64
2023/01/11 09:02:45;;;;;;;1.90;0.60;;;11.00;99.90;;;11.08;100.00;100459.72;5143779;28;20131;-63
2023/01/11 09:05:17;;;;;;;1.10;0.52;;;11.00;99.90;;;11.08;100.00;100464.94;5144834;28;20591;-62
2023/01/11 09:07:49;;;;;;;1.40;0.50;;;11.10;99.90;;;11.07;100.00;100473.56;5143951;28;20050;-62
2023/01/11 09:10:25;;;;;;;1.80;0.50;;;11.10;99.90;;;11.08;100.00;100475.38;5143903;28;20105;-62
2023/01/11 09:12:59;;;;;;;0.43;0.32;;;11.00;99.90;;;11.02;100.00;100475.19;5142601;28;20113;-63
2023/01/11 09:15:31;;;;;;;0.93;0.52;;;11.00;99.90;;;10.99;100.00;100480.31;5144050;28;20043;-62
2023/01/11 09:18:04;;;;;;;2.08;0.40;;;10.90;99.90;;;10.95;100.00;100486.28;5143536;28;20043;-62
2023/01/11 09:20:36;;;;;;;1.65;0.50;;;10.90;99.90;;;10.97;100.00;100476.78;5143465;28;20058;-63
2023/01/11 09:23:08;;;;;;;1.88;0.60;;;10.90;99.90;;;10.95;100.00;100468.00;5143406;28;20043;-62
2023/01/11 09:25:40;;;;;;;1.67;0.50;;;10.90;99.90;;;10.93;100.00;100474.03;5145237;28;20046;-62
2023/01/11 09:28:13;;;;;;;2.45;0.60;;;10.90;99.90;;;10.91;100.00;100486.16;5146737;28;20119;-63
2023/01/11 09:30:45;;;;;;;0.95;0.52;;;10.90;99.90;;;10.91;100.00;100481.84;5146958;28;20058;-62
2023/01/11 09:33:18;;;;;;;2.70;0.52;;;10.90;99.90;;;10.90;100.00;100480.06;5145387;28;20047;-63
2023/01/11 09:35:53;;;;;;;1.30;0.90;;;10.90;99.90;;;10.90;100.00;100469.63;5146357;28;20412;-63
2023/01/11 09:38:28;;;;;;;2.08;0.70;;;10.90;99.90;;;10.91;100.00;100466.19;5146536;28;20089;-62
2023/01/11 09:41:16;;;;;;;1.08;0.60;;;10.90;99.90;;;10.91;100.00;100460.97;5146722;28;20059;-62
2023/01/11 09:44:00;;;;;;;0.85;0.70;;;10.90;99.90;;;10.91;100.00;100487.03;5161617;28;20047;-64
2023/01/11 09:46:34;;;;;;;0.60;0.52;;;10.90;99.90;;;10.92;100.00;100499.25;5145565;28;20050;-63
2023/01/11 09:49:13;;;;;;;0.65;0.40;;;10.90;99.90;;;10.93;100.00;100511.44;5146668;28;20078;-62
2023/01/11 09:51:46;;;;;;;1.00;0.55;;;10.90;99.90;;;10.93;100.00;100495.78;5144870;28;20047;-62
2023/01/11 09:54:24;;;;;;;1.13;0.70;;;10.90;99.90;;;10.95;100.00;100501.03;5146577;28;20038;-62
2023/01/11 09:57:12;;;;;;;1.50;0.70;;;10.90;99.90;;;10.95;100.00;100507.13;5146226;28;20492;-62
2023/01/11 09:59:53;;;;;;;0.95;0.57;;;10.90;99.90;;;10.95;100.00;100514.97;5146071;28;20042;-62
2023/01/11 10:02:39;;;;;;;0.65;0.45;;;10.90;99.90;;;10.93;100.00;100511.44;5146322;28;20042;-61
2023/01/11 10:05:50;;;;;;;1.75;0.63;;;10.90;99.90;;;10.92;100.00;100521.81;5146703;28;20129;-63
2023/01/11 10:08:40;;;;;;;0.80;0.80;;;10.90;99.90;;;10.91;100.00;100517.47;5145909;28;20041;-64
2023/01/11 10:11:29;;;;;;;0.90;0.63;;;10.80;99.90;;;10.89;100.00;100530.47;5146339;28;20082;-62
2023/01/11 10:14:12;;;;;;;2.20;0.82;;;10.90;99.90;;;10.90;100.00;100537.44;5146067;28;20053;-62
2023/01/11 10:16:58;;;;;;;1.20;0.90;;;10.80;99.90;;;10.90;100.00;100532.22;5145931;28;20042;-62
2023/01/11 10:19:39;;;;;;;1.30;0.93;;;10.90;99.90;;;10.89;100.00;100533.06;5146063;28;20101;-63
2023/01/11 10:22:17;;;;;;;2.67;1.33;;;10.80;99.90;;;10.90;100.00;100549.59;5146530;28;20046;-63
2023/01/11 10:24:56;;;;;;;3.63;1.30;;;10.90;99.90;;;10.91;100.00;100560.06;5145596;28;20042;-62
2023/01/11 10:27:35;;;;;;;4.55;1.48;;;10.80;99.90;;;10.89;100.00;100546.09;5144690;28;20050;-62
2023/01/11 10:30:38;;;;;;;3.67;1.23;;;10.90;99.90;;;10.89;100.00;100556.53;5144533;28;20046;-62
2023/01/11 10:33:37;;;;;;;3.40;1.60;;;10.90;99.90;;;10.88;100.00;100557.34;5145880;28;20419;-64
2023/01/11 10:36:33;;;;;;;5.55;1.83;;;10.90;99.90;;;10.90;100.00;100573.94;5250621;23;20126;-60
2023/01/11 10:39:30;;;;;;;6.78;2.05;;;10.90;99.90;;;10.91;100.00;100575.72;5145483;28;20407;-62
2023/01/11 10:42:10;;;;;;;9.82;2.20;;;10.90;99.90;;;10.90;100.00;100580.88;5145266;28;20101;-60
2023/01/11 10:44:54;;;;;;;6.97;2.65;;;10.90;99.90;;;10.91;100.00;100574.81;5127851;28;20051;-61
2023/01/11 10:47:32;;;;;;;7.32;2.40;;;10.90;99.90;;;10.87;100.00;100579.94;5145067;28;20046;-61
2023/01/11 10:50:17;;;;;;;7.75;2.53;;;10.90;99.90;;;10.89;100.00;100587.84;5145149;28;20507;-61
2023/01/11 10:52:54;;;;;;;8.10;2.33;;;10.90;99.90;;;10.90;100.00;100579.16;5145172;28;20043;-61
2023/01/11 10:55:39;;;;;;;8.05;1.90;;;10.80;99.90;;;10.89;100.00;100577.41;5144996;28;20526;-61
2023/01/11 10:58:25;;;;;;;5.05;1.65;;;10.90;99.90;;;10.90;100.00;100571.34;5144988;28;20443;-60
2023/01/11 11:01:12;;;;;;;7.90;2.40;;;10.90;99.90;;;10.88;100.00;100559.97;5144875;28;20043;-60
2023/01/11 11:04:16;;;;;;;5.55;1.90;;;10.90;99.90;;;10.90;100.00;100565.25;5144973;28;20121;-60
2023/01/11 11:07:00;;;;;;;6.13;2.20;;;10.90;99.90;;;10.92;100.00;100569.66;5143719;28;20507;-60
2023/01/11 11:09:47;;;;;;;9.23;2.13;;;10.90;99.90;;;10.94;100.00;100567.97;5144670;28;20043;-60